METAR Data
IDs: Format: Raw Decoded Include TAF

Data at: 2220 UTC 01 Dec 2021

KEVU 012215Z AUTO 23008KT 10SM CLR 16/02 A2989 RMK AO2 T01620023